Time;durP1;ratioP1;P1;durP2;ratioP2;P2;SDS_P1;SDS_P2;PMS_P1;PMS_P2;Temp;Humidity;BMP_temperature;BMP_pressure;BME280_temperature;BME280_humidity;BME280_pressure;Samples;Min_cycle;Max_cycle;Signal;HPM_P1;HPM_P2
2021/06/08 00:00:39;;;;;;;28.80;22.60;;;12.90;99.90;;;;;;4160435;28;20037;-73
2021/06/08 00:02:39;;;;;;;32.00;22.48;;;12.90;99.90;;;;;;4162192;28;20030;-71
2021/06/08 00:04:40;;;;;;;30.38;22.90;;;12.90;99.90;;;;;;4162437;28;20115;-71
2021/06/08 00:06:41;;;;;;;29.42;22.35;;;12.90;99.90;;;;;;4162396;28;20021;-72
2021/06/08 00:08:42;;;;;;;28.55;21.48;;;12.90;99.90;;;;;;4162078;28;20037;-72
2021/06/08 00:10:42;;;;;;;29.45;20.00;;;12.90;99.90;;;;;;4162269;28;20022;-73
2021/06/08 00:12:43;;;;;;;28.38;21.98;;;12.80;99.90;;;;;;4150441;28;20095;-72
2021/06/08 00:14:43;;;;;;;28.58;20.65;;;12.70;99.90;;;;;;4173172;28;20047;-72
2021/06/08 00:16:44;;;;;;;27.02;20.63;;;12.70;99.90;;;;;;4169379;28;20036;-72
2021/06/08 00:18:45;;;;;;;23.52;19.38;;;12.60;99.90;;;;;;4153847;28;20026;-72
2021/06/08 00:20:45;;;;;;;27.90;21.13;;;12.60;99.90;;;;;;4148811;28;20034;-72
2021/06/08 00:22:47;;;;;;;23.80;20.10;;;12.50;99.90;;;;;;4153208;28;20792;-72
2021/06/08 00:24:47;;;;;;;27.20;20.75;;;12.50;99.90;;;;;;4153736;28;20036;-72
2021/06/08 00:26:48;;;;;;;26.30;21.55;;;12.50;99.90;;;;;;4175556;28;20040;-72
2021/06/08 00:28:49;;;;;;;25.77;20.05;;;12.50;99.90;;;;;;4151338;28;20470;-72
2021/06/08 00:30:49;;;;;;;26.60;20.55;;;12.40;99.90;;;;;;4151098;28;20120;-72
2021/06/08 00:32:50;;;;;;;29.38;21.13;;;12.40;99.90;;;;;;4162282;28;20176;-72
2021/06/08 00:34:51;;;;;;;22.33;18.80;;;12.30;99.90;;;;;;4152282;28;20029;-71
2021/06/08 00:36:51;;;;;;;27.92;19.73;;;12.30;99.90;;;;;;4154580;28;20033;-72
2021/06/08 00:38:52;;;;;;;27.98;20.67;;;12.30;99.90;;;;;;4163770;28;20041;-72
2021/06/08 00:40:52;;;;;;;27.23;20.75;;;12.40;99.90;;;;;;4156345;28;20026;-72
2021/06/08 00:42:55;;;;;;;24.38;19.30;;;12.40;99.90;;;;;;4177227;28;20041;-72
2021/06/08 00:44:56;;;;;;;25.17;20.05;;;12.40;99.90;;;;;;4152875;28;20088;-72
2021/06/08 00:46:57;;;;;;;25.30;19.98;;;12.40;99.90;;;;;;4153177;28;20120;-72
2021/06/08 00:48:58;;;;;;;27.02;20.67;;;12.40;99.90;;;;;;4163696;28;20527;-72
2021/06/08 00:50:58;;;;;;;23.38;18.58;;;12.40;99.90;;;;;;4163152;28;20067;-72
2021/06/08 00:52:59;;;;;;;25.55;19.85;;;12.30;99.90;;;;;;4164959;28;20034;-72
2021/06/08 00:55:00;;;;;;;23.08;18.58;;;12.30;99.90;;;;;;4164987;28;20387;-72
2021/06/08 00:57:00;;;;;;;27.33;18.27;;;12.20;99.90;;;;;;4165021;28;20056;-72
2021/06/08 00:59:01;;;;;;;21.27;17.60;;;12.20;99.90;;;;;;4164569;28;20057;-72
2021/06/08 01:01:02;;;;;;;23.75;18.63;;;12.10;99.90;;;;;;4164561;28;20025;-72
2021/06/08 01:03:03;;;;;;;23.17;19.65;;;12.10;99.90;;;;;;4164979;28;20037;-72
2021/06/08 01:05:07;;;;;;;24.30;18.77;;;12.00;99.90;;;;;;4164811;28;20030;-72
2021/06/08 01:07:08;;;;;;;24.10;18.48;;;11.90;99.90;;;;;;4163381;28;20038;-72
2021/06/08 01:09:09;;;;;;;23.85;18.48;;;11.90;99.90;;;;;;4164834;28;20036;-72
2021/06/08 01:11:09;;;;;;;21.90;18.55;;;11.90;99.90;;;;;;4164898;28;20473;-72
2021/06/08 01:13:10;;;;;;;27.38;18.95;;;11.90;99.90;;;;;;4164824;28;20104;-72
2021/06/08 01:15:11;;;;;;;22.20;18.05;;;11.90;99.90;;;;;;4164478;28;20111;-72
2021/06/08 01:17:12;;;;;;;28.98;18.98;;;11.90;99.90;;;;;;4164928;28;20053;-72
2021/06/08 01:19:13;;;;;;;23.05;18.48;;;11.90;99.90;;;;;;4164598;28;20037;-72
2021/06/08 01:21:13;;;;;;;22.65;18.40;;;11.90;99.90;;;;;;4164647;28;20020;-72
2021/06/08 01:23:14;;;;;;;25.00;18.02;;;11.80;99.90;;;;;;4164626;28;20022;-72
2021/06/08 01:25:14;;;;;;;24.67;20.02;;;11.80;99.90;;;;;;4164223;28;20041;-72
2021/06/08 01:27:16;;;;;;;24.70;18.88;;;11.70;99.90;;;;;;4163111;28;20026;-72
2021/06/08 01:29:18;;;;;;;25.88;18.65;;;11.70;99.90;;;;;;4163363;28;20564;-72
2021/06/08 01:31:22;;;;;;;22.70;19.02;;;11.70;99.90;;;;;;4159034;28;20393;-72
2021/06/08 01:33:25;;;;;;;23.85;17.85;;;11.60;99.90;;;;;;4163589;28;20026;-72
2021/06/08 01:35:28;;;;;;;24.13;19.48;;;11.60;99.90;;;;;;4151272;28;20038;-72
2021/06/08 01:37:29;;;;;;;21.50;16.50;;;11.60;99.90;;;;;;4152875;28;20508;-72
2021/06/08 01:39:31;;;;;;;23.30;17.80;;;11.50;99.90;;;;;;4160239;28;20029;-72
2021/06/08 01:41:33;;;;;;;22.98;17.58;;;11.70;99.90;;;;;;4154740;28;20485;-72
2021/06/08 01:43:34;;;;;;;27.75;19.58;;;10.30;99.90;;;;;;4155225;28;20091;-72
2021/06/08 01:45:35;;;;;;;25.77;19.70;;;11.40;99.90;;;;;;4167271;28;20037;-72
2021/06/08 01:47:36;;;;;;;24.25;19.27;;;11.40;99.90;;;;;;4155470;28;20032;-72
2021/06/08 01:49:37;;;;;;;23.02;19.23;;;11.30;99.90;;;;;;4156897;28;20381;-72
2021/06/08 01:51:59;;;;;;;28.75;18.83;;;11.40;99.90;;;;;;4162788;28;20029;-72
2021/06/08 01:54:12;;;;;;;27.10;20.80;;;11.30;99.90;;;;;;4165745;28;20053;-72
2021/06/08 01:56:16;;;;;;;30.55;20.55;;;11.20;99.90;;;;;;4163807;28;20041;-72
2021/06/08 01:58:32;;;;;;;28.88;19.88;;;11.20;99.90;;;;;;4163831;28;20115;-72
2021/06/08 02:00:58;;;;;;;26.55;19.48;;;11.20;99.90;;;;;;4162973;28;20034;-72
2021/06/08 02:03:30;;;;;;;26.52;19.98;;;11.20;99.90;;;;;;4159648;28;20029;-72
2021/06/08 02:06:18;;;;;;;27.05;21.58;;;11.20;99.90;;;;;;4159157;28;20547;-72
2021/06/08 02:08:42;;;;;;;32.63;22.00;;;11.20;99.90;;;;;;4141869;28;20061;-72
2021/06/08 02:10:52;;;;;;;30.98;23.30;;;11.10;99.90;;;;;;4159415;28;20034;-72
2021/06/08 02:13:28;;;;;;;30.40;21.95;;;11.10;99.90;;;;;;4159301;28;20116;-72
2021/06/08 02:15:33;;;;;;;28.20;20.55;;;11.10;99.90;;;;;;4161242;28;20111;-72
2021/06/08 02:17:41;;;;;;;31.27;22.75;;;10.90;99.90;;;;;;4157898;28;20030;-72
2021/06/08 02:19:49;;;;;;;30.30;21.83;;;11.00;99.90;;;;;;4159224;28;20501;-72
2021/06/08 02:21:55;;;;;;;29.73;23.33;;;11.00;99.90;;;;;;4159319;28;20146;-72
2021/06/08 02:23:57;;;;;;;28.65;22.67;;;11.00;99.90;;;;;;4157100;28;20041;-72
2021/06/08 02:25:59;;;;;;;30.52;20.17;;;11.00;99.90;;;;;;4156746;28;20030;-72
2021/06/08 02:28:04;;;;;;;28.38;22.05;;;11.00;99.90;;;;;;4159085;28;20040;-72
2021/06/08 02:30:06;;;;;;;31.27;21.67;;;11.00;99.90;;;;;;4158696;28;20113;-72
2021/06/08 02:32:08;;;;;;;33.80;23.48;;;11.00;99.90;;;;;;4157479;28;20516;-72
2021/06/08 02:34:13;;;;;;;34.45;24.10;;;11.00;99.90;;;;;;4156989;28;20059;-72
2021/06/08 02:36:15;;;;;;;35.45;24.73;;;11.10;99.90;;;;;;4161629;28;20048;-72
2021/06/08 02:38:17;;;;;;;36.65;26.42;;;11.10;99.90;;;;;;4158887;28;20033;-72
2021/06/08 02:40:19;;;;;;;35.63;25.25;;;11.10;99.90;;;;;;4158981;28;20420;-72
2021/06/08 02:42:21;;;;;;;32.67;24.83;;;11.10;99.90;;;;;;4159025;28;20033;-72
2021/06/08 02:44:22;;;;;;;31.83;24.58;;;11.00;99.90;;;;;;4162614;28;20044;-72
2021/06/08 02:46:24;;;;;;;32.83;24.20;;;11.00;99.90;;;;;;4158890;28;20121;-72
2021/06/08 02:48:26;;;;;;;32.27;24.37;;;10.90;99.90;;;;;;4158855;28;20491;-72
2021/06/08 02:50:28;;;;;;;39.05;26.75;;;10.90;99.90;;;;;;4158999;28;20025;-72
2021/06/08 02:52:30;;;;;;;41.03;27.77;;;10.90;99.90;;;;;;4163440;28;20599;-72
2021/06/08 02:54:31;;;;;;;40.22;26.42;;;10.90;99.90;;;;;;4163103;28;20065;-72
2021/06/08 02:56:33;;;;;;;37.83;27.40;;;10.90;99.90;;;;;;4161672;28;20038;-72
2021/06/08 02:58:36;;;;;;;39.20;27.40;;;10.80;99.90;;;;;;4162806;28;20079;-72
2021/06/08 03:00:38;;;;;;;41.28;26.42;;;10.80;99.90;;;;;;4163069;28;20500;-72
2021/06/08 03:02:42;;;;;;;40.55;26.88;;;10.80;99.90;;;;;;4162997;28;20033;-72
2021/06/08 03:04:45;;;;;;;39.60;25.50;;;10.80;99.90;;;;;;4162919;28;20051;-72
2021/06/08 03:06:53;;;;;;;40.05;26.70;;;10.70;99.90;;;;;;4162859;28;20044;-72
2021/06/08 03:08:59;;;;;;;44.83;28.77;;;10.60;99.90;;;;;;4162722;28;20438;-72
2021/06/08 03:11:05;;;;;;;41.25;26.02;;;10.70;99.90;;;;;;4162717;28;20131;-72
2021/06/08 03:13:07;;;;;;;42.47;27.27;;;10.60;99.90;;;;;;4162062;28;20061;-72
2021/06/08 03:15:08;;;;;;;39.47;28.50;;;10.60;99.90;;;;;;4162401;28;20030;-72
2021/06/08 03:17:11;;;;;;;40.22;27.67;;;10.60;99.90;;;;;;4162828;28;20017;-72
2021/06/08 03:19:17;;;;;;;41.17;27.92;;;10.60;99.90;;;;;;4162878;28;20022;-72
2021/06/08 03:21:30;;;;;;;42.10;28.67;;;10.70;99.90;;;;;;4162764;28;20025;-72
2021/06/08 03:23:36;;;;;;;44.53;28.60;;;10.70;99.90;;;;;;4162780;28;20357;-72
2021/06/08 03:25:38;;;;;;;39.97;27.20;;;10.70;99.90;;;;;;4162621;28;20092;-73
2021/06/08 03:27:39;;;;;;;39.17;26.67;;;10.70;99.90;;;;;;4162789;28;20033;-72
2021/06/08 03:29:40;;;;;;;46.50;27.77;;;10.70;99.90;;;;;;4161520;28;20504;-72
2021/06/08 03:31:46;;;;;;;36.63;28.02;;;10.70;99.90;;;;;;4162652;28;20025;-72
2021/06/08 03:33:47;;;;;;;45.78;26.77;;;10.70;99.90;;;;;;4162563;28;20059;-72
2021/06/08 03:35:49;;;;;;;38.85;26.52;;;10.70;99.90;;;;;;4162749;28;20132;-72
2021/06/08 03:37:52;;;;;;;40.28;26.08;;;10.70;99.90;;;;;;4162608;28;20033;-72
2021/06/08 03:39:54;;;;;;;40.13;26.67;;;10.70;99.90;;;;;;4162688;28;20401;-72
2021/06/08 03:41:56;;;;;;;44.03;29.48;;;10.70;99.90;;;;;;4162840;28;20030;-72
2021/06/08 03:43:58;;;;;;;39.60;28.50;;;10.70;99.90;;;;;;4162463;28;20044;-72
2021/06/08 03:45:59;;;;;;;43.78;30.15;;;10.70;99.90;;;;;;4163022;28;20091;-72
2021/06/08 03:48:00;;;;;;;46.50;30.25;;;10.90;99.90;;;;;;4162893;28;20041;-72
2021/06/08 03:50:01;;;;;;;45.00;30.92;;;10.90;99.90;;;;;;4162496;28;20036;-72
2021/06/08 03:52:02;;;;;;;47.53;33.13;;;11.00;99.90;;;;;;4162269;28;20041;-72
2021/06/08 03:54:03;;;;;;;49.75;33.55;;;11.00;99.90;;;;;;4162531;28;20057;-72
2021/06/08 03:56:04;;;;;;;44.40;31.38;;;10.90;99.90;;;;;;4165105;28;20038;-73
2021/06/08 03:58:12;;;;;;;45.58;29.92;;;10.90;99.90;;;;;;4165662;28;20034;-72
2021/06/08 04:00:15;;;;;;;44.17;31.17;;;10.90;99.90;;;;;;4164277;28;20057;-72
2021/06/08 04:02:18;;;;;;;41.70;28.58;;;10.90;99.90;;;;;;4164487;28;20041;-72
2021/06/08 04:04:20;;;;;;;44.65;30.42;;;10.90;99.90;;;;;;4164404;28;20041;-72
2021/06/08 04:06:22;;;;;;;45.75;30.63;;;10.90;99.90;;;;;;4165482;28;20171;-72
2021/06/08 04:08:25;;;;;;;42.85;29.38;;;10.90;99.90;;;;;;4165919;28;20026;-72
2021/06/08 04:10:26;;;;;;;38.08;27.20;;;10.90;99.90;;;;;;4163890;28;20030;-72
2021/06/08 04:12:27;;;;;;;41.72;27.92;;;10.90;99.90;;;;;;4165681;28;20036;-72
2021/06/08 04:14:28;;;;;;;49.28;31.50;;;10.90;99.90;;;;;;4165648;28;20061;-72
2021/06/08 04:16:29;;;;;;;44.97;30.23;;;11.00;99.90;;;;;;4164766;28;20040;-72
2021/06/08 04:18:31;;;;;;;47.15;31.40;;;11.00;99.90;;;;;;4165669;28;20127;-73
2021/06/08 04:20:32;;;;;;;52.97;31.75;;;11.10;99.90;;;;;;4165445;28;20032;-72
2021/06/08 04:22:35;;;;;;;45.22;29.65;;;11.10;99.90;;;;;;4165458;28;20037;-72
2021/06/08 04:24:36;;;;;;;45.40;28.83;;;11.10;99.90;;;;;;4165304;28;20030;-72
2021/06/08 04:26:37;;;;;;;45.70;30.80;;;11.20;99.90;;;;;;4165499;28;20048;-72
2021/06/08 04:28:38;;;;;;;52.63;31.88;;;11.30;99.90;;;;;;4165212;28;20048;-72
2021/06/08 04:30:39;;;;;;;40.42;29.90;;;11.30;99.90;;;;;;4165250;28;20044;-72
2021/06/08 04:32:40;;;;;;;46.80;29.90;;;11.40;99.90;;;;;;4165513;28;20380;-72
2021/06/08 04:34:47;;;;;;;40.95;28.95;;;11.50;99.90;;;;;;4163986;28;20041;-72
2021/06/08 04:36:49;;;;;;;42.60;27.42;;;11.50;99.90;;;;;;4165039;28;20069;-72
2021/06/08 04:38:50;;;;;;;43.88;30.50;;;11.60;99.90;;;;;;4163811;28;20081;-72
2021/06/08 04:40:51;;;;;;;44.55;30.08;;;11.60;99.90;;;;;;4164862;28;20088;-72
2021/06/08 04:42:52;;;;;;;37.75;28.75;;;11.70;99.90;;;;;;4165195;28;20519;-72
2021/06/08 04:44:53;;;;;;;44.75;31.85;;;11.70;99.90;;;;;;4165044;28;20037;-72
2021/06/08 04:46:55;;;;;;;43.70;31.20;;;11.80;99.90;;;;;;4165247;28;20041;-72
2021/06/08 04:48:56;;;;;;;42.97;31.33;;;11.80;99.90;;;;;;4165160;28;20034;-72
2021/06/08 04:50:56;;;;;;;45.50;30.35;;;11.90;99.90;;;;;;4164461;28;20390;-72
2021/06/08 04:53:00;;;;;;;40.83;30.77;;;12.00;99.90;;;;;;4164817;28;20029;-72
2021/06/08 04:55:02;;;;;;;37.05;27.77;;;12.10;99.90;;;;;;4160543;28;20397;-72
2021/06/08 04:57:04;;;;;;;43.17;31.80;;;12.20;99.90;;;;;;4162151;28;20029;-72
2021/06/08 04:59:05;;;;;;;41.53;29.23;;;12.30;99.90;;;;;;4163428;28;20473;-72
2021/06/08 05:01:33;;;;;;;37.65;28.35;;;13.00;99.90;;;;;;4160297;28;20056;-72
2021/06/08 05:03:47;;;;;;;32.45;25.90;;;12.40;99.90;;;;;;4175217;28;20516;-72
2021/06/08 05:05:54;;;;;;;33.70;28.58;;;12.50;99.90;;;;;;4165216;28;20033;-72
2021/06/08 05:08:08;;;;;;;34.15;25.60;;;12.60;99.90;;;;;;4163851;28;20031;-72
2021/06/08 05:10:13;;;;;;;40.33;27.20;;;12.70;99.90;;;;;;4164472;28;20029;-72
2021/06/08 05:12:16;;;;;;;31.08;25.55;;;12.80;99.90;;;;;;4164809;28;20033;-72
2021/06/08 05:14:18;;;;;;;34.25;29.05;;;12.90;99.90;;;;;;4154339;28;20436;-72
2021/06/08 05:16:20;;;;;;;29.83;26.48;;;13.00;99.90;;;;;;4162032;28;20053;-72
2021/06/08 05:18:22;;;;;;;32.58;27.40;;;13.10;99.90;;;;;;4165105;28;20064;-72
2021/06/08 05:20:23;;;;;;;30.67;25.73;;;13.20;99.90;;;;;;4160819;28;20030;-72
2021/06/08 05:22:25;;;;;;;31.20;26.25;;;13.20;99.90;;;;;;4164015;28;20040;-72
2021/06/08 05:24:26;;;;;;;32.83;26.63;;;13.40;99.90;;;;;;4162862;28;20040;-72
2021/06/08 05:26:27;;;;;;;33.00;24.77;;;13.50;99.90;;;;;;4164008;28;20120;-72
2021/06/08 05:28:29;;;;;;;33.00;24.40;;;13.80;99.90;;;;;;4164204;28;20029;-72
2021/06/08 05:30:30;;;;;;;25.40;22.30;;;13.90;99.90;;;;;;4163619;28;20038;-72
2021/06/08 05:32:31;;;;;;;23.08;20.67;;;13.80;99.90;;;;;;4162272;28;20391;-72
2021/06/08 05:34:32;;;;;;;23.13;20.67;;;13.90;99.90;;;;;;4159898;28;20075;-74
2021/06/08 05:36:38;;;;;;;25.67;21.90;;;14.00;99.90;;;;;;4163466;28;20033;-73
2021/06/08 05:38:42;;;;;;;23.63;20.15;;;14.00;99.90;;;;;;4160984;28;20029;-72
2021/06/08 05:40:44;;;;;;;26.95;21.30;;;14.10;99.90;;;;;;4160172;28;20033;-72
2021/06/08 05:42:46;;;;;;;22.15;19.33;;;14.20;99.90;;;;;;4162827;28;20124;-72
2021/06/08 05:44:47;;;;;;;26.27;19.30;;;14.30;99.90;;;;;;4162271;28;20029;-72
2021/06/08 05:46:49;;;;;;;20.05;17.95;;;14.40;99.90;;;;;;4162561;28;20342;-72
2021/06/08 05:48:49;;;;;;;21.48;17.52;;;14.40;99.90;;;;;;4159615;28;20509;-72
2021/06/08 05:50:53;;;;;;;22.40;17.98;;;14.40;99.90;;;;;;4162415;28;20087;-71
2021/06/08 05:52:54;;;;;;;21.38;16.33;;;14.50;99.90;;;;;;4162832;28;20106;-72
2021/06/08 05:54:56;;;;;;;19.33;15.75;;;14.60;99.90;;;;;;4162734;28;20029;-72
2021/06/08 05:56:57;;;;;;;20.85;17.65;;;14.70;99.90;;;;;;4163501;28;20065;-71
2021/06/08 05:58:58;;;;;;;19.13;17.13;;;14.70;99.90;;;;;;4162245;28;20091;-72
2021/06/08 06:01:00;;;;;;;19.38;17.33;;;14.80;99.90;;;;;;4156333;28;20083;-72
2021/06/08 06:03:01;;;;;;;19.65;16.02;;;14.80;99.90;;;;;;4162812;28;20473;-72
2021/06/08 06:05:05;;;;;;;18.05;15.68;;;14.90;99.90;;;;;;4163413;28;20091;-72
2021/06/08 06:07:06;;;;;;;17.45;14.10;;;15.00;99.90;;;;;;4163186;28;20047;-73
2021/06/08 06:09:07;;;;;;;18.35;15.80;;;15.10;99.90;;;;;;4163789;28;20501;-73
2021/06/08 06:11:08;;;;;;;21.15;14.60;;;15.20;99.90;;;;;;4163922;28;20041;-73
2021/06/08 06:13:22;;;;;;;17.20;14.70;;;15.20;99.90;;;;;;4163581;28;20113;-72
2021/06/08 06:15:26;;;;;;;18.85;13.23;;;15.30;99.90;;;;;;4162477;28;20144;-73
2021/06/08 06:17:32;;;;;;;18.75;13.70;;;15.30;99.90;;;;;;4163927;28;20025;-73
2021/06/08 06:19:33;;;;;;;16.05;11.95;;;15.40;99.90;;;;;;4162619;28;20032;-73
2021/06/08 06:21:34;;;;;;;15.07;11.10;;;15.50;99.90;;;;;;4161706;28;20037;-73
2021/06/08 06:23:35;;;;;;;13.20;11.43;;;15.50;99.90;;;;;;4163678;28;20528;-73
2021/06/08 06:25:36;;;;;;;12.98;11.52;;;15.50;99.90;;;;;;4162324;28;20065;-73
2021/06/08 06:27:38;;;;;;;15.68;11.30;;;15.60;99.90;;;;;;4163316;28;20037;-73
2021/06/08 06:29:40;;;;;;;12.63;11.20;;;15.60;99.90;;;;;;4163684;28;20041;-73
2021/06/08 06:31:45;;;;;;;12.73;10.65;;;15.70;99.90;;;;;;4162222;28;20110;-73
2021/06/08 06:33:51;;;;;;;9.93;8.77;;;15.80;99.90;;;;;;4163501;28;20107;-73
2021/06/08 06:35:56;;;;;;;13.65;10.05;;;15.90;99.90;;;;;;4162048;28;20072;-73
2021/06/08 06:37:59;;;;;;;9.70;8.48;;;16.00;99.90;;;;;;4163576;28;20179;-73
2021/06/08 06:40:27;;;;;;;10.95;8.50;;;16.20;99.90;;;;;;4219494;27;21613;-72
2021/06/08 06:42:32;;;;;;;12.68;8.85;;;16.30;99.90;;;;;;4208833;28;20082;-72
2021/06/08 06:44:34;;;;;;;13.98;9.02;;;17.00;99.90;;;;;;4193407;28;20047;-72
2021/06/08 06:46:35;;;;;;;9.02;8.15;;;16.50;99.90;;;;;;4193923;28;20115;-72
2021/06/08 06:48:36;;;;;;;9.30;7.93;;;16.70;99.90;;;;;;4193478;28;20024;-72
2021/06/08 06:50:38;;;;;;;10.27;7.70;;;16.70;99.90;;;;;;4193387;28;20475;-72
2021/06/08 06:52:40;;;;;;;10.32;7.03;;;16.80;99.90;;;;;;4193851;28;20479;-72
2021/06/08 06:54:41;;;;;;;10.60;7.28;;;16.90;99.90;;;;;;4193313;28;20470;-72
2021/06/08 06:56:44;;;;;;;10.88;6.65;;;17.00;99.90;;;;;;4193627;28;20064;-72
2021/06/08 06:58:45;;;;;;;15.18;7.78;;;17.20;99.90;;;;;;4193347;28;20037;-69
2021/06/08 07:00:47;;;;;;;12.88;7.30;;;17.30;99.90;;;;;;4191609;28;20028;-74
2021/06/08 07:02:49;;;;;;;10.10;6.57;;;17.40;99.90;;;;;;4193254;28;20032;-73
2021/06/08 07:04:51;;;;;;;8.52;5.97;;;17.50;99.90;;;;;;4191170;28;20070;-72
2021/06/08 07:06:54;;;;;;;6.30;5.43;;;17.60;99.90;;;;;;4193292;28;20455;-69
2021/06/08 07:08:57;;;;;;;9.73;5.50;;;17.70;99.90;;;;;;4193315;28;20135;-72
2021/06/08 07:11:00;;;;;;;7.60;6.15;;;17.80;99.90;;;;;;4191994;28;20487;-72
2021/06/08 07:13:06;;;;;;;10.18;5.75;;;17.90;99.90;;;;;;4193094;28;20090;-70
2021/06/08 07:15:09;;;;;;;9.60;5.47;;;18.00;99.90;;;;;;4191510;28;20110;-71
2021/06/08 07:17:11;;;;;;;;;;;18.10;99.90;;;;;;4191952;28;20437;-70
2021/06/08 07:19:14;;;;;;;9.98;5.47;;;18.20;99.90;;;;;;4192539;28;19920;-71
2021/06/08 07:21:19;;;;;;;8.07;5.47;;;18.30;99.90;;;;;;4191565;28;20449;-71
2021/06/08 07:23:21;;;;;;;6.07;5.00;;;18.40;99.90;;;;;;4192915;28;20083;-72
2021/06/08 07:25:23;;;;;;;5.93;4.93;;;18.60;99.90;;;;;;4191494;28;20029;-71
2021/06/08 07:27:24;;;;;;;7.30;4.25;;;18.70;99.90;;;;;;4193357;28;20041;-71
2021/06/08 07:29:25;;;;;;;6.93;4.80;;;18.70;99.90;;;;;;4193142;28;20036;-71
2021/06/08 07:31:51;;;;;;;10.13;4.80;;;18.80;99.90;;;;;;4191281;28;20063;-72
2021/06/08 07:34:03;;;;;;;5.55;4.90;;;19.00;99.90;;;;;;4191495;28;20047;-71
2021/06/08 07:36:27;;;;;;;6.68;5.53;;;19.10;99.90;;;;;;4192595;28;20021;-71
2021/06/08 07:38:29;;;;;;;;;;;19.20;99.90;;;;;;4191209;28;20073;-71
2021/06/08 07:40:37;;;;;;;7.28;5.53;;;19.40;99.90;;;;;;4192611;28;20351;-71
2021/06/08 07:42:42;;;;;;;7.75;5.85;;;19.50;99.90;;;;;;4192585;28;20025;-71
2021/06/08 07:44:57;;;;;;;5.30;4.70;;;19.60;99.90;;;;;;4191080;28;20021;-71
2021/06/08 07:47:03;;;;;;;7.95;5.78;;;19.90;99.90;;;;;;4192841;28;20021;-71
2021/06/08 07:49:06;;;;;;;7.78;5.53;;;19.90;99.90;;;;;;4191875;28;20067;-72
2021/06/08 07:51:09;;;;;;;9.05;6.28;;;20.00;99.90;;;;;;4183614;28;20029;-71
2021/06/08 07:53:10;;;;;;;7.53;5.78;;;20.10;99.90;;;;;;4181425;28;20091;-72
2021/06/08 07:55:12;;;;;;;7.70;5.85;;;20.10;99.90;;;;;;4179897;28;20064;-72
2021/06/08 07:57:13;;;;;;;8.55;6.72;;;20.20;99.90;;;;;;4181401;28;20025;-71
2021/06/08 07:59:15;;;;;;;9.30;6.80;;;20.40;99.90;;;;;;4167278;28;20029;-72
2021/06/08 08:01:20;;;;;;;8.88;6.57;;;20.50;99.90;;;;;;4181527;28;20403;-71
2021/06/08 08:03:27;;;;;;;6.78;6.07;;;20.70;99.90;;;;;;4182079;28;20043;-71
2021/06/08 08:05:28;;;;;;;8.40;6.10;;;20.90;99.90;;;;;;4182307;28;20025;-72
2021/06/08 08:07:30;;;;;;;7.55;6.05;;;20.80;99.90;;;;;;4181170;28;20115;-71
2021/06/08 08:09:31;;;;;;;7.03;6.32;;;21.00;99.90;;;;;;4181228;28;20096;-72
2021/06/08 08:11:32;;;;;;;8.52;6.30;;;21.50;99.90;;;;;;4180069;28;20033;-71
2021/06/08 08:13:34;;;;;;;7.05;6.40;;;21.80;99.90;;;;;;4181489;28;20017;-72
2021/06/08 08:15:35;;;;;;;8.63;6.60;;;21.80;99.90;;;;;;4181019;28;20036;-72
2021/06/08 08:17:40;;;;;;;6.35;5.78;;;21.90;99.90;;;;;;4181438;28;20082;-72
2021/06/08 08:19:42;;;;;;;5.80;5.25;;;22.00;99.90;;;;;;4179747;28;20041;-71
2021/06/08 08:21:43;;;;;;;7.28;5.50;;;21.90;99.90;;;;;;4212855;28;20027;-72
2021/06/08 08:23:45;;;;;;;8.45;5.53;;;21.90;99.90;;;;;;4179790;28;20037;-71
2021/06/08 08:25:46;;;;;;;7.10;5.40;;;21.90;99.90;;;;;;4181314;28;20037;-72
2021/06/08 08:27:46;;;;;;;5.43;4.93;;;22.00;99.90;;;;;;4179545;28;20025;-70
2021/06/08 08:29:47;;;;;;;6.47;5.88;;;22.20;99.90;;;;;;4180861;28;20033;-73
2021/06/08 08:31:49;;;;;;;6.63;5.93;;;22.30;99.90;;;;;;4179535;28;20528;-70
2021/06/08 08:33:49;;;;;;;10.73;6.55;;;22.40;99.90;;;;;;4180942;28;20479;-72
2021/06/08 08:35:52;;;;;;;5.63;5.03;;;22.50;99.90;;;;;;4180624;28;20045;-72
2021/06/08 08:37:55;;;;;;;7.35;5.28;;;22.60;99.90;;;;;;4181024;28;20036;-72
2021/06/08 08:39:56;;;;;;;6.38;5.68;;;22.40;99.90;;;;;;4180376;28;20040;-72
2021/06/08 08:41:57;;;;;;;6.43;5.80;;;22.50;99.90;;;;;;4180699;28;20037;-72
2021/06/08 08:43:58;;;;;;;6.07;5.57;;;22.50;99.90;;;;;;4180546;28;20090;-72
2021/06/08 08:45:58;;;;;;;8.25;5.57;;;22.50;99.90;;;;;;4179487;28;20033;-72
2021/06/08 08:47:59;;;;;;;6.85;4.90;;;22.70;99.90;;;;;;4180423;28;20025;-72
2021/06/08 08:50:00;;;;;;;6.75;4.57;;;23.00;99.90;;;;;;4180410;28;20065;-72
2021/06/08 08:52:03;;;;;;;6.53;4.07;;;23.20;99.90;;;;;;4178755;28;20039;-72
2021/06/08 08:54:04;;;;;;;6.13;5.15;;;23.20;99.90;;;;;;4180587;28;20079;-72
2021/06/08 08:56:06;;;;;;;6.35;4.82;;;23.50;99.90;;;;;;4180375;28;20100;-72
2021/06/08 08:58:06;;;;;;;5.47;4.32;;;23.60;99.90;;;;;;4180435;28;20040;-70
2021/06/08 09:00:08;;;;;;;5.55;4.13;;;23.70;99.90;;;;;;4180796;28;20029;-71
2021/06/08 09:02:10;;;;;;;5.70;3.70;;;22.70;99.90;;;;;;4179680;28;20130;-70
2021/06/08 09:04:11;;;;;;;5.70;3.85;;;23.50;99.90;;;;;;4180256;28;20029;-71
2021/06/08 09:06:12;;;;;;;3.75;3.45;;;23.60;99.90;;;;;;4180577;28;20028;-71
2021/06/08 09:08:13;;;;;;;5.45;4.47;;;23.40;99.90;;;;;;4180086;28;20022;-72
2021/06/08 09:10:13;;;;;;;5.75;4.10;;;23.40;99.90;;;;;;4180262;28;20116;-70
2021/06/08 09:12:14;;;;;;;3.88;3.50;;;23.30;99.90;;;;;;4180634;28;20040;-71
2021/06/08 09:14:16;;;;;;;4.45;4.05;;;;;;;;;;4180107;28;20125;-71
2021/06/08 09:16:18;;;;;;;4.70;4.30;;;23.80;99.90;;;;;;4180592;28;20028;-71
2021/06/08 09:18:22;;;;;;;5.57;3.78;;;24.00;99.90;;;;;;4180295;28;20029;-71
2021/06/08 09:20:25;;;;;;;4.28;3.60;;;24.30;99.90;;;;;;4180310;28;20025;-72
2021/06/08 09:22:53;;;;;;;5.07;4.43;;;24.40;99.90;;;;;;4180658;28;20975;-71
2021/06/08 09:24:55;;;;;;;5.57;4.03;;;24.60;99.90;;;;;;4178661;28;20028;-71
2021/06/08 09:27:01;;;;;;;4.18;3.45;;;24.70;99.90;;;;;;4179798;28;20032;-70
2021/06/08 09:29:02;;;;;;;5.22;4.13;;;24.60;99.90;;;;;;4179844;28;20528;-71
2021/06/08 09:31:19;;;;;;;4.75;4.32;;;24.50;99.90;;;;;;4180059;28;20028;-71
2021/06/08 09:33:29;;;;;;;7.05;4.13;;;24.80;99.90;;;;;;4180182;28;20025;-71
2021/06/08 09:35:30;;;;;;;5.38;3.47;;;25.00;99.90;;;;;;4166568;28;20036;-72
2021/06/08 09:37:41;;;;;;;3.85;3.53;;;25.10;99.90;;;;;;4180132;28;20025;-71
2021/06/08 09:39:47;;;;;;;4.00;3.40;;;25.10;99.90;;;;;;4179453;28;20049;-71
2021/06/08 09:41:50;;;;;;;3.58;3.28;;;25.00;99.90;;;;;;4179726;28;20025;-72
2021/06/08 09:43:52;;;;;;;;;;;25.40;99.90;;;;;;4180496;28;20044;-72
2021/06/08 09:45:53;;;;;;;3.55;3.22;;;25.40;99.90;;;;;;4179905;28;19992;-72
2021/06/08 09:48:01;;;;;;;4.05;3.33;;;25.50;99.90;;;;;;4179542;28;20040;-72
2021/06/08 09:50:22;;;;;;;3.67;3.33;;;25.50;99.90;;;;;;4179213;28;20504;-72
2021/06/08 09:52:22;;;;;;;4.65;3.60;;;25.70;99.90;;;;;;4179245;28;20385;-72
2021/06/08 09:54:36;;;;;;;6.00;3.35;;;25.70;99.90;;;;;;4179437;28;20086;-72
2021/06/08 09:56:37;;;;;;;6.68;4.30;;;25.70;99.90;;;;;;4179435;28;20033;-71
2021/06/08 09:58:43;;;;;;;3.75;3.08;;;26.00;99.90;;;;;;4179327;28;20029;-71
2021/06/08 10:01:12;;;;;;;4.32;3.92;;;26.20;99.90;;;;;;4179412;28;20380;-71
2021/06/08 10:03:13;;;;;;;5.70;3.72;;;26.20;99.90;;;;;;4179232;28;20154;-71
2021/06/08 10:05:13;;;;;;;4.50;3.60;;;26.20;99.90;;;;;;4178579;28;20032;-71
2021/06/08 10:07:31;;;;;;;3.47;2.75;;;26.30;99.90;;;;;;4178142;28;20105;-71
2021/06/08 10:09:31;;;;;;;4.28;3.25;;;26.50;99.90;;;;;;4179614;28;20056;-72
2021/06/08 10:11:35;;;;;;;4.30;3.35;;;26.80;99.90;;;;;;4179557;28;20036;-72
2021/06/08 10:13:35;;;;;;;4.32;3.40;;;26.90;99.90;;;;;;4177950;28;20462;-72
2021/06/08 10:15:40;;;;;;;5.85;4.00;;;27.00;99.90;;;;;;4179298;28;20025;-71
2021/06/08 10:17:41;;;;;;;5.53;3.85;;;27.40;99.90;;;;;;4179635;28;20479;-71
2021/06/08 10:19:43;;;;;;;4.15;3.40;;;27.70;99.90;;;;;;4179113;28;20041;-71
2021/06/08 10:21:48;;;;;;;5.53;3.75;;;27.90;99.90;;;;;;4179283;28;20041;-72
2021/06/08 10:23:49;;;;;;;3.78;3.47;;;28.10;99.90;;;;;;4179087;28;20031;-72
2021/06/08 10:25:52;;;;;;;3.90;3.42;;;28.00;99.90;;;;;;4179457;28;20059;-72
2021/06/08 10:27:53;;;;;;;4.63;3.33;;;28.20;99.90;;;;;;4177435;28;20029;-72
2021/06/08 10:29:55;;;;;;;5.63;3.65;;;28.30;99.90;;;;;;4179583;28;20053;-71
2021/06/08 10:31:57;;;;;;;4.07;3.67;;;28.00;99.90;;;;;;4179320;28;20035;-72
2021/06/08 10:33:59;;;;;;;5.57;3.45;;;28.20;99.90;;;;;;4178926;28;20394;-72